Time;durP1;ratioP1;P1;durP2;ratioP2;P2;SDS_P1;SDS_P2;PMS_P1;PMS_P2;Temp;Humidity;BMP_temperature;BMP_pressure;BME280_temperature;BME280_humidity;BME280_pressure;Samples;Min_cycle;Max_cycle;Signal;HPM_P1;HPM_P2
2023/08/28 00:00:18;;;;;;;1.00;1.00;;;21.50;64.10;;;;;;5052379;28;20229;-70
2023/08/28 00:02:44;;;;;;;2.05;1.20;;;21.50;64.10;;;;;;5053534;28;20171;-72
2023/08/28 00:05:09;;;;;;;1.63;1.20;;;21.50;64.10;;;;;;5052904;28;20212;-72
2023/08/28 00:07:35;;;;;;;1.25;1.00;;;21.50;64.10;;;;;;5052750;28;20170;-72
2023/08/28 00:10:00;;;;;;;2.30;1.00;;;21.50;64.10;;;;;;5052927;28;20167;-71
2023/08/28 00:12:26;;;;;;;2.47;1.20;;;21.40;64.10;;;;;;5053063;28;20167;-68
2023/08/28 00:14:52;;;;;;;1.23;1.13;;;21.40;64.10;;;;;;5052522;28;20266;-69
2023/08/28 00:17:17;;;;;;;1.23;0.95;;;21.40;64.10;;;;;;5052809;28;20266;-70
2023/08/28 00:19:43;;;;;;;1.50;1.15;;;21.40;64.10;;;;;;5052653;28;20207;-71
2023/08/28 00:22:09;;;;;;;1.00;1.00;;;21.40;64.10;;;;;;5051987;28;20576;-69
2023/08/28 00:24:34;;;;;;;1.02;1.00;;;21.30;64.80;;;;;;5052812;28;20207;-70
2023/08/28 00:27:00;;;;;;;1.00;1.00;;;21.40;64.10;;;;;;5052666;28;20182;-71
2023/08/28 00:29:25;;;;;;;2.42;1.10;;;21.30;64.00;;;;;;5052021;28;20179;-71
2023/08/28 00:31:51;;;;;;;1.67;1.15;;;21.40;64.10;;;;;;5052787;28;20210;-72
2023/08/28 00:34:16;;;;;;;0.90;0.90;;;21.30;64.00;;;;;;5052591;28;20171;-71
2023/08/28 00:36:42;;;;;;;1.20;1.10;;;21.30;64.00;;;;;;5052117;28;20175;-72
2023/08/28 00:39:08;;;;;;;0.95;0.95;;;21.30;64.00;;;;;;5052546;28;20175;-71
2023/08/28 00:41:34;;;;;;;1.25;1.15;;;21.30;64.10;;;;;;5052863;28;20241;-71
2023/08/28 00:44:00;;;;;;;1.17;1.08;;;21.30;64.00;;;;;;5051672;28;20223;-72
2023/08/28 00:46:25;;;;;;;1.08;1.00;;;21.30;64.00;;;;;;5052727;28;20939;-71
2023/08/28 00:48:51;;;;;;;1.85;1.10;;;21.30;64.00;;;;;;5052287;28;20634;-72
2023/08/28 00:51:16;;;;;;;0.77;0.77;;;21.30;64.00;;;;;;5051263;28;20187;-71
2023/08/28 00:53:42;;;;;;;1.88;1.15;;;21.20;64.90;;;;;;5053025;28;20195;-70
2023/08/28 00:56:07;;;;;;;1.00;1.00;;;21.20;63.90;;;;;;5051805;28;20225;-70
2023/08/28 00:58:33;;;;;;;0.95;0.95;;;21.20;64.00;;;;;;5052886;28;20573;-69
2023/08/28 01:00:58;;;;;;;3.25;1.52;;;21.30;64.10;;;;;;5052358;28;20249;-71
2023/08/28 01:03:24;;;;;;;1.10;0.85;;;21.20;64.00;;;;;;5050620;28;20181;-71
2023/08/28 01:06:06;;;;;;;1.70;1.27;;;21.20;63.90;;;;;;5051254;28;20213;-72
2023/08/28 01:08:34;;;;;;;1.15;1.05;;;21.20;63.90;;;;;;5051624;28;20197;-71
2023/08/28 01:11:29;;;;;;;0.88;0.88;;;21.20;63.90;;;;;;5051514;28;20724;-70
2023/08/28 01:14:02;;;;;;;1.25;1.15;;;21.20;63.90;;;;;;5051449;28;20317;-69
2023/08/28 01:16:27;;;;;;;0.90;0.90;;;21.20;63.90;;;;;;5051411;28;20262;-69
2023/08/28 01:18:53;;;;;;;2.40;1.25;;;21.20;63.90;;;;;;5050920;28;20198;-70
2023/08/28 01:21:19;;;;;;;1.45;0.98;;;21.10;63.90;;;;;;5051229;28;20649;-69
2023/08/28 01:23:55;;;;;;;0.95;0.95;;;21.20;63.90;;;;;;5051267;28;20228;-69
2023/08/28 01:26:21;;;;;;;1.92;1.00;;;21.10;63.90;;;;;;5050221;28;20178;-68
2023/08/28 01:28:47;;;;;;;0.88;0.73;;;21.10;63.90;;;;;;5051379;28;20205;-70
2023/08/28 01:31:12;;;;;;;1.17;1.08;;;21.10;63.90;;;;;;5051642;28;20233;-71
2023/08/28 01:33:38;;;;;;;1.85;0.90;;;21.10;63.90;;;;;;5056218;28;20171;-70
2023/08/28 01:36:19;;;;;;;0.68;0.65;;;21.10;63.90;;;;;;5054670;28;20248;-71
2023/08/28 01:38:49;;;;;;;1.17;1.08;;;21.10;64.00;;;;;;5054202;28;20171;-70
2023/08/28 01:41:15;;;;;;;1.10;0.80;;;21.10;64.00;;;;;;5054648;28;20175;-70
2023/08/28 01:43:45;;;;;;;0.80;0.80;;;21.10;63.90;;;;;;5054741;28;20236;-71
2023/08/28 01:46:11;;;;;;;0.90;0.90;;;21.10;64.80;;;;;;5053789;28;20194;-71
2023/08/28 01:48:42;;;;;;;1.35;1.10;;;21.10;64.00;;;;;;5056056;28;20172;-70
2023/08/28 01:51:08;;;;;;;1.20;0.90;;;21.00;64.80;;;;;;5054419;28;20213;-71
2023/08/28 01:53:33;;;;;;;1.58;0.80;;;21.10;64.90;;;;;;5055042;28;20195;-69
2023/08/28 01:56:08;;;;;;;1.05;1.00;;;21.10;64.10;;;;;;5055686;28;20174;-70
2023/08/28 01:58:40;;;;;;;1.17;1.05;;;21.10;64.00;;;;;;5055768;28;20174;-70
2023/08/28 02:01:05;;;;;;;0.88;0.82;;;21.00;64.00;;;;;;5054607;28;20213;-71
2023/08/28 02:03:31;;;;;;;1.05;0.98;;;21.00;64.00;;;;;;5055735;28;20203;-71
2023/08/28 02:05:57;;;;;;;0.80;0.80;;;21.00;64.10;;;;;;5055518;28;20241;-71
2023/08/28 02:08:22;;;;;;;1.10;1.10;;;21.10;64.00;;;;;;5054965;28;20618;-71
2023/08/28 02:10:48;;;;;;;1.00;0.70;;;21.00;64.00;;;;;;5055582;28;20733;-70
2023/08/28 02:13:13;;;;;;;1.05;1.00;;;21.10;64.10;;;;;;5055182;28;20171;-69
2023/08/28 02:15:39;;;;;;;1.00;0.90;;;21.00;64.00;;;;;;5054880;28;20179;-68
2023/08/28 02:18:04;;;;;;;1.33;1.23;;;21.00;64.00;;;;;;5055214;28;20651;-69
2023/08/28 02:20:30;;;;;;;1.10;1.00;;;21.00;64.00;;;;;;5054642;28;20519;-68
2023/08/28 02:22:55;;;;;;;2.47;0.93;;;21.00;64.00;;;;;;5055148;28;20194;-70
2023/08/28 02:25:23;;;;;;;1.50;1.00;;;21.00;64.00;;;;;;5054981;28;20241;-69
2023/08/28 02:27:49;;;;;;;2.47;1.17;;;21.00;63.90;;;;;;5055042;28;20250;-70
2023/08/28 02:30:15;;;;;;;1.58;1.00;;;21.00;64.00;;;;;;5054666;28;20179;-69
2023/08/28 02:32:41;;;;;;;2.33;1.10;;;21.00;63.90;;;;;;5055054;28;20205;-72
2023/08/28 02:35:07;;;;;;;1.10;1.00;;;21.00;64.00;;;;;;5053829;28;20179;-71
2023/08/28 02:37:33;;;;;;;0.93;0.93;;;20.90;63.90;;;;;;5055144;28;20802;-71
2023/08/28 02:39:59;;;;;;;0.90;0.90;;;21.00;64.00;;;;;;5054750;28;20518;-70
2023/08/28 02:42:25;;;;;;;0.95;0.95;;;21.00;63.90;;;;;;5053873;28;20646;-69
2023/08/28 02:44:50;;;;;;;1.10;1.10;;;20.90;64.70;;;;;;5054539;28;20235;-71
2023/08/28 02:47:16;;;;;;;0.85;0.85;;;20.90;63.90;;;;;;5054466;28;20194;-71
2023/08/28 02:49:41;;;;;;;1.13;0.90;;;20.90;63.80;;;;;;5053965;28;20202;-71
2023/08/28 02:52:07;;;;;;;1.23;0.88;;;20.90;63.90;;;;;;5054489;28;20643;-70
2023/08/28 02:54:32;;;;;;;1.65;0.88;;;20.90;63.80;;;;;;5054737;28;20233;-69
2023/08/28 02:56:59;;;;;;;1.08;0.98;;;20.90;63.70;;;;;;5053819;28;20261;-69
2023/08/28 02:59:24;;;;;;;0.88;0.88;;;20.90;63.70;;;;;;5054458;28;20623;-70
2023/08/28 03:01:50;;;;;;;0.90;0.90;;;20.90;63.70;;;;;;5054326;28;20254;-71
2023/08/28 03:04:16;;;;;;;1.77;1.10;;;20.90;63.70;;;;;;5053104;28;20290;-70
2023/08/28 03:06:42;;;;;;;1.40;1.00;;;20.90;63.70;;;;;;5054291;28;20508;-71
2023/08/28 03:09:07;;;;;;;0.98;0.90;;;20.90;63.70;;;;;;5053994;28;20175;-70
2023/08/28 03:11:36;;;;;;;0.80;0.80;;;20.90;63.70;;;;;;5053716;28;20179;-69
2023/08/28 03:14:02;;;;;;;1.13;0.98;;;20.90;63.70;;;;;;5053902;28;20183;-69
2023/08/28 03:16:28;;;;;;;1.10;0.88;;;20.80;63.70;;;;;;5053987;28;20187;-68
2023/08/28 03:18:54;;;;;;;1.30;1.20;;;20.90;63.70;;;;;;5053313;28;20171;-69
2023/08/28 03:21:19;;;;;;;1.10;1.00;;;20.80;63.70;;;;;;5053640;28;20183;-69
2023/08/28 03:23:45;;;;;;;1.45;1.00;;;20.90;63.70;;;;;;5053249;28;20171;-69
2023/08/28 03:26:10;;;;;;;1.25;0.88;;;20.80;63.60;;;;;;5053782;28;20190;-69
2023/08/28 03:28:36;;;;;;;1.08;0.82;;;20.80;63.60;;;;;;5054156;28;20179;-71
2023/08/28 03:31:01;;;;;;;0.90;0.90;;;20.80;63.60;;;;;;5053119;28;20175;-71
2023/08/28 03:33:27;;;;;;;0.80;0.80;;;20.90;63.70;;;;;;5053604;28;20630;-70
2023/08/28 03:35:53;;;;;;;0.93;0.93;;;20.80;63.60;;;;;;5054058;28;20167;-71
2023/08/28 03:38:18;;;;;;;0.85;0.85;;;20.80;63.70;;;;;;5052813;28;20214;-70
2023/08/28 03:40:44;;;;;;;1.60;0.80;;;20.80;63.60;;;;;;5053697;28;20203;-70
2023/08/28 03:43:10;;;;;;;1.02;0.93;;;20.80;63.60;;;;;;5053445;28;20179;-71
2023/08/28 03:45:36;;;;;;;3.13;0.85;;;20.80;63.60;;;;;;5052638;28;20235;-71
2023/08/28 03:48:02;;;;;;;0.82;0.82;;;20.80;63.60;;;;;;5053401;28;20183;-72
2023/08/28 03:50:30;;;;;;;0.82;0.70;;;20.80;63.60;;;;;;5053289;28;20183;-70
2023/08/28 03:52:56;;;;;;;0.80;0.80;;;20.80;63.60;;;;;;5052920;28;20175;-70
2023/08/28 03:55:22;;;;;;;1.67;0.80;;;20.80;63.60;;;;;;5052652;28;20187;-70
2023/08/28 03:57:48;;;;;;;0.90;0.90;;;20.80;63.60;;;;;;5053248;28;20630;-69
2023/08/28 04:00:14;;;;;;;1.25;0.90;;;20.80;63.60;;;;;;5052339;28;20266;-70
2023/08/28 04:02:40;;;;;;;0.70;0.70;;;20.80;63.60;;;;;;5053246;28;20252;-72
2023/08/28 04:05:07;;;;;;;0.73;0.73;;;20.80;63.50;;;;;;5053055;28;20242;-72
2023/08/28 04:07:32;;;;;;;1.13;1.00;;;20.70;63.50;;;;;;5052666;28;20175;-71
2023/08/28 04:09:58;;;;;;;1.58;1.10;;;20.70;63.50;;;;;;5052865;28;20175;-70
2023/08/28 04:12:24;;;;;;;0.85;0.85;;;20.80;63.60;;;;;;5052977;28;20171;-68
2023/08/28 04:14:49;;;;;;;1.73;1.20;;;20.70;63.50;;;;;;5052349;28;20197;-68
2023/08/28 04:17:16;;;;;;;0.85;0.85;;;20.70;63.50;;;;;;5052674;28;20171;-69
2023/08/28 04:19:42;;;;;;;1.13;0.95;;;20.70;63.50;;;;;;5053310;28;20199;-69
2023/08/28 04:22:07;;;;;;;0.80;0.80;;;20.70;63.40;;;;;;5052188;28;20760;-70
2023/08/28 04:24:33;;;;;;;1.40;0.90;;;20.70;63.50;;;;;;5053078;28;20715;-70
2023/08/28 04:26:58;;;;;;;1.23;1.13;;;20.70;63.50;;;;;;5052195;28;20173;-70
2023/08/28 04:29:24;;;;;;;1.02;0.93;;;20.70;63.50;;;;;;5052864;28;20171;-69
2023/08/28 04:31:49;;;;;;;0.80;0.80;;;20.70;63.50;;;;;;5052857;28;20254;-71
2023/08/28 04:34:15;;;;;;;0.70;0.70;;;20.70;63.50;;;;;;5051534;28;20171;-69
2023/08/28 04:36:41;;;;;;;1.45;1.00;;;20.70;64.40;;;;;;5052702;28;20187;-72
2023/08/28 04:39:06;;;;;;;1.10;0.88;;;20.70;63.50;;;;;;5052376;28;20274;-70
2023/08/28 04:41:33;;;;;;;0.90;0.90;;;20.70;63.60;;;;;;5052233;28;20195;-71
2023/08/28 04:43:58;;;;;;;0.93;0.90;;;20.70;63.60;;;;;;5052175;28;20227;-70
2023/08/28 04:46:25;;;;;;;0.93;0.93;;;20.70;63.60;;;;;;5052653;28;20183;-70
2023/08/28 04:48:50;;;;;;;0.93;0.82;;;20.70;63.60;;;;;;5051026;28;20179;-72
2023/08/28 04:51:16;;;;;;;2.15;1.08;;;20.70;63.60;;;;;;5052484;28;20281;-70
2023/08/28 04:53:42;;;;;;;1.08;0.68;;;20.70;63.60;;;;;;5052575;28;20526;-70
2023/08/28 04:56:07;;;;;;;1.08;0.95;;;20.60;63.50;;;;;;5051633;28;20186;-69
2023/08/28 04:58:33;;;;;;;0.80;0.80;;;20.60;63.50;;;;;;5052602;28;20576;-69
2023/08/28 05:00:59;;;;;;;0.80;0.80;;;20.70;63.60;;;;;;5052354;28;20175;-71
2023/08/28 05:03:25;;;;;;;1.65;0.95;;;20.70;63.60;;;;;;5051687;28;20206;-70
2023/08/28 05:05:51;;;;;;;2.17;0.80;;;20.70;63.60;;;;;;5053504;28;20242;-71
2023/08/28 05:08:16;;;;;;;1.35;0.90;;;20.70;63.60;;;;;;5055063;28;20289;-70
2023/08/28 05:10:42;;;;;;;1.00;0.90;;;20.70;63.60;;;;;;5055998;28;20285;-70
2023/08/28 05:13:07;;;;;;;1.15;1.10;;;20.70;63.60;;;;;;5056265;28;20217;-70
2023/08/28 05:15:33;;;;;;;1.25;0.90;;;20.60;63.60;;;;;;5056562;28;20272;-69
2023/08/28 05:17:58;;;;;;;0.63;0.63;;;20.60;63.70;;;;;;5055578;28;20176;-70
2023/08/28 05:20:24;;;;;;;0.82;0.82;;;20.60;63.60;;;;;;5056439;28;20654;-69
2023/08/28 05:22:49;;;;;;;0.82;0.82;;;20.60;63.50;;;;;;5056429;28;20171;-70
2023/08/28 05:25:15;;;;;;;0.95;0.85;;;20.60;63.60;;;;;;5055291;28;20211;-70
2023/08/28 05:27:40;;;;;;;0.90;0.80;;;20.60;63.60;;;;;;5056141;28;20171;-70
2023/08/28 05:30:07;;;;;;;1.05;0.73;;;20.60;63.60;;;;;;5055867;28;20225;-71
2023/08/28 05:32:33;;;;;;;0.93;0.65;;;20.60;63.60;;;;;;5055635;28;20172;-72
2023/08/28 05:34:59;;;;;;;1.17;1.08;;;20.60;63.60;;;;;;5056209;28;20202;-72
2023/08/28 05:37:25;;;;;;;1.10;1.00;;;20.60;63.60;;;;;;5055315;28;20756;-72
2023/08/28 05:39:51;;;;;;;1.02;1.02;;;20.60;63.60;;;;;;5055913;28;20587;-71
2023/08/28 05:42:17;;;;;;;1.48;1.08;;;20.70;63.70;;;;;;5055617;28;20182;-71
2023/08/28 05:44:45;;;;;;;1.10;0.90;;;20.60;63.70;;;;;;5054918;28;20694;-72
2023/08/28 05:47:10;;;;;;;1.00;1.00;;;20.70;63.70;;;;;;5055706;28;20315;-72
2023/08/28 05:49:36;;;;;;;1.13;1.02;;;20.60;63.70;;;;;;5055756;28;20649;-72
2023/08/28 05:52:02;;;;;;;0.85;0.85;;;20.60;63.70;;;;;;5054944;28;20167;-70
2023/08/28 05:54:29;;;;;;;0.93;0.93;;;20.60;63.70;;;;;;5055767;28;20210;-70
2023/08/28 05:56:54;;;;;;;1.02;0.90;;;20.70;63.70;;;;;;5055549;28;20180;-70
2023/08/28 05:59:20;;;;;;;0.70;0.70;;;20.70;64.60;;;;;;5054557;28;20186;-70
2023/08/28 06:01:45;;;;;;;0.82;0.82;;;20.70;63.70;;;;;;5055720;28;20182;-72
2023/08/28 06:04:11;;;;;;;0.80;0.80;;;20.70;63.70;;;;;;5055278;28;20191;-72
2023/08/28 06:06:38;;;;;;;1.60;0.95;;;20.70;63.70;;;;;;5055021;28;20183;-71
2023/08/28 06:09:04;;;;;;;1.83;1.00;;;20.70;63.70;;;;;;5055267;28;20179;-71
2023/08/28 06:11:29;;;;;;;0.73;0.73;;;20.60;63.70;;;;;;5055521;28;20321;-70
2023/08/28 06:13:55;;;;;;;1.38;0.90;;;20.70;63.80;;;;;;5054596;28;20573;-69
2023/08/28 06:16:20;;;;;;;0.70;0.70;;;20.60;63.70;;;;;;5054713;28;20194;-69
2023/08/28 06:18:46;;;;;;;1.00;1.00;;;20.60;63.80;;;;;;5055349;28;20167;-70
2023/08/28 06:21:11;;;;;;;1.33;0.90;;;20.70;63.80;;;;;;5054387;28;20201;-71
2023/08/28 06:23:37;;;;;;;1.25;1.00;;;20.70;63.90;;;;;;5055204;28;20171;-70
2023/08/28 06:26:03;;;;;;;1.42;0.82;;;20.70;63.90;;;;;;5054931;28;20214;-70
2023/08/28 06:28:28;;;;;;;1.67;1.20;;;20.70;63.90;;;;;;5054128;28;20171;-69
2023/08/28 06:30:54;;;;;;;1.65;1.00;;;20.70;63.90;;;;;;5055252;28;20186;-72
2023/08/28 06:33:20;;;;;;;1.10;0.90;;;20.70;64.00;;;;;;5054765;28;20174;-71
2023/08/28 06:35:46;;;;;;;1.35;1.00;;;20.70;63.90;;;;;;5054254;28;20205;-72
2023/08/28 06:38:12;;;;;;;1.05;0.95;;;20.70;63.90;;;;;;5053401;28;20642;-72
2023/08/28 06:40:38;;;;;;;2.83;1.00;;;20.70;63.90;;;;;;5054047;28;20638;-70
2023/08/28 06:43:03;;;;;;;1.35;1.20;;;20.70;63.60;;;;;;5054563;28;20198;-71
2023/08/28 06:45:30;;;;;;;0.75;0.75;;;20.70;63.40;;;;;;5054361;28;20234;-69
2023/08/28 06:47:57;;;;;;;2.92;1.25;;;20.80;63.80;;;;;;5054138;28;20206;-74
2023/08/28 06:50:23;;;;;;;6.22;1.23;;;20.80;63.80;;;;;;5054802;28;20183;-70
2023/08/28 06:52:49;;;;;;;3.15;1.40;;;20.80;63.90;;;;;;5054701;28;20633;-71
2023/08/28 06:55:14;;;;;;;3.78;1.77;;;20.80;63.90;;;;;;5053425;28;20664;-70
2023/08/28 06:57:40;;;;;;;5.65;2.53;;;20.80;63.80;;;;;;5054450;28;20182;-71
2023/08/28 07:00:06;;;;;;;6.40;2.35;;;20.80;63.70;;;;;;5054165;28;20182;-73
2023/08/28 07:02:32;;;;;;;5.07;2.30;;;20.80;63.70;;;;;;5053642;28;20642;-72
2023/08/28 07:04:58;;;;;;;5.80;2.13;;;20.80;63.70;;;;;;5054192;28;20300;-73
2023/08/28 07:07:23;;;;;;;3.63;2.20;;;20.90;63.70;;;;;;5054304;28;20642;-70
2023/08/28 07:09:49;;;;;;;4.22;2.28;;;20.80;63.70;;;;;;5053577;28;20179;-72
2023/08/28 07:12:14;;;;;;;5.00;1.75;;;20.90;63.60;;;;;;5053957;28;20229;-70
2023/08/28 07:14:40;;;;;;;1.63;1.30;;;20.90;63.60;;;;;;5054136;28;20182;-71
2023/08/28 07:17:06;;;;;;;3.90;1.40;;;20.90;63.60;;;;;;5053379;28;20707;-71
2023/08/28 07:19:32;;;;;;;4.68;1.65;;;20.90;63.60;;;;;;5054049;28;20506;-70
2023/08/28 07:22:00;;;;;;;2.20;1.23;;;20.90;63.50;;;;;;5053999;28;20538;-71
2023/08/28 07:24:26;;;;;;;2.05;1.23;;;21.00;63.50;;;;;;5053173;28;20202;-69
2023/08/28 07:26:51;;;;;;;1.83;1.48;;;21.00;63.60;;;;;;5053899;28;20179;-70
2023/08/28 07:29:17;;;;;;;2.40;1.15;;;21.00;63.60;;;;;;5052890;28;20182;-70
2023/08/28 07:31:43;;;;;;;1.88;1.10;;;21.00;63.60;;;;;;5052994;28;20199;-72
2023/08/28 07:34:08;;;;;;;2.15;1.33;;;21.00;63.50;;;;;;5053581;28;20217;-73
2023/08/28 07:36:37;;;;;;;2.40;1.20;;;21.10;63.60;;;;;;5053940;28;20627;-73
2023/08/28 07:39:02;;;;;;;1.27;1.17;;;21.10;63.60;;;;;;5052946;28;20642;-72
2023/08/28 07:41:28;;;;;;;2.10;1.08;;;21.10;63.50;;;;;;5053553;28;20182;-72
2023/08/28 07:43:53;;;;;;;2.15;1.20;;;21.10;63.50;;;;;;5052809;28;20177;-74
2023/08/28 07:46:19;;;;;;;4.78;1.38;;;21.10;63.50;;;;;;5053649;28;20178;-72
2023/08/28 07:48:45;;;;;;;1.35;1.20;;;21.10;63.50;;;;;;5053654;28;20175;-72
2023/08/28 07:51:10;;;;;;;2.50;1.10;;;21.20;63.50;;;;;;5052717;28;20175;-72
2023/08/28 07:53:36;;;;;;;2.10;1.30;;;21.20;63.50;;;;;;5053590;28;20588;-71
2023/08/28 07:56:02;;;;;;;2.22;1.00;;;21.30;63.50;;;;;;5053085;28;20174;-72
2023/08/28 07:58:29;;;;;;;2.13;1.00;;;21.20;63.70;;;;;;5052513;28;20285;-71
2023/08/28 08:00:55;;;;;;;2.47;1.15;;;21.20;63.70;;;;;;5053527;28;20258;-73
2023/08/28 08:03:21;;;;;;;1.98;1.38;;;21.30;63.60;;;;;;5052813;28;20630;-72
2023/08/28 08:05:47;;;;;;;2.85;1.15;;;21.30;63.70;;;;;;5052603;28;20209;-73
2023/08/28 08:08:12;;;;;;;2.03;1.30;;;21.30;63.60;;;;;;5052967;28;20179;-72
2023/08/28 08:10:38;;;;;;;1.70;1.13;;;21.40;63.70;;;;;;5053120;28;20305;-73
2023/08/28 08:13:04;;;;;;;2.90;1.38;;;21.40;63.60;;;;;;5052517;28;20178;-71
2023/08/28 08:15:30;;;;;;;2.50;1.23;;;21.40;63.70;;;;;;5052939;28;20665;-70
2023/08/28 08:17:56;;;;;;;2.20;1.30;;;21.40;63.70;;;;;;5053117;28;20262;-71
2023/08/28 08:20:21;;;;;;;1.15;1.02;;;21.40;64.60;;;;;;5051916;28;20185;-69
2023/08/28 08:22:47;;;;;;;2.85;1.20;;;21.40;63.70;;;;;;5052965;28;20592;-72
2023/08/28 08:25:13;;;;;;;3.33;1.30;;;21.50;64.50;;;;;;5052551;28;20666;-71
2023/08/28 08:27:39;;;;;;;2.78;1.33;;;21.50;63.60;;;;;;5052395;28;20171;-71
2023/08/28 08:30:08;;;;;;;1.58;1.23;;;21.50;63.50;;;;;;5052770;28;20182;-71
2023/08/28 08:32:34;;;;;;;3.75;1.55;;;21.60;63.70;;;;;;5052968;28;20213;-72
2023/08/28 08:34:59;;;;;;;1.40;1.27;;;21.60;63.70;;;;;;5051993;28;20575;-74
2023/08/28 08:37:28;;;;;;;1.25;0.95;;;21.60;63.70;;;;;;5052648;28;20717;-73
2023/08/28 08:39:54;;;;;;;1.48;0.90;;;21.60;63.70;;;;;;5052473;28;20668;-72
2023/08/28 08:42:19;;;;;;;1.98;1.17;;;21.60;63.80;;;;;;5051908;28;20172;-71
2023/08/28 08:44:45;;;;;;;1.00;0.90;;;21.60;63.80;;;;;;5052670;28;20234;-72
2023/08/28 08:47:11;;;;;;;2.10;1.58;;;21.60;64.80;;;;;;5051808;28;20275;-72
2023/08/28 08:49:37;;;;;;;2.38;1.35;;;21.50;64.00;;;;;;5051522;28;20175;-72
2023/08/28 08:52:05;;;;;;;3.63;1.20;;;21.50;64.20;;;;;;5051394;28;20208;-71
2023/08/28 08:54:39;;;;;;;1.30;1.00;;;21.50;64.10;;;;;;5050737;28;20526;-70
2023/08/28 08:57:16;;;;;;;1.00;1.00;;;21.60;64.00;;;;;;5052640;28;20179;-72
2023/08/28 08:59:43;;;;;;;1.60;1.13;;;21.70;63.90;;;;;;5052612;28;20171;-72
2023/08/28 09:02:09;;;;;;;2.20;1.27;;;21.70;63.70;;;;;;5051584;28;20664;-74
2023/08/28 09:04:34;;;;;;;2.40;1.05;;;21.70;63.70;;;;;;5051439;28;20191;-73
2023/08/28 09:07:02;;;;;;;1.45;1.00;;;21.70;63.80;;;;;;5052373;28;20182;-73
2023/08/28 09:09:28;;;;;;;1.58;1.02;;;21.60;64.00;;;;;;5050515;28;20199;-71
2023/08/28 09:11:54;;;;;;;2.95;1.05;;;21.60;64.10;;;;;;5051217;28;20654;-72
2023/08/28 09:14:19;;;;;;;1.55;1.00;;;21.50;64.10;;;;;;5052221;28;20175;-69
2023/08/28 09:16:47;;;;;;;2.10;1.08;;;21.60;64.10;;;;;;5050638;28;20183;-70
2023/08/28 09:19:13;;;;;;;1.27;0.88;;;21.70;64.90;;;;;;5052135;28;20179;-70
2023/08/28 09:21:39;;;;;;;1.10;1.00;;;21.80;63.90;;;;;;5051372;28;20241;-71
2023/08/28 09:24:10;;;;;;;1.40;1.10;;;21.80;63.80;;;;;;5051283;28;20167;-71
2023/08/28 09:26:37;;;;;;;1.33;0.90;;;21.90;63.70;;;;;;5052501;28;20183;-71
2023/08/28 09:29:04;;;;;;;1.38;0.98;;;21.90;63.60;;;;;;5052014;28;20270;-71
2023/08/28 09:31:31;;;;;;;2.42;0.80;;;21.90;63.60;;;;;;5051391;28;20189;-71
2023/08/28 09:33:57;;;;;;;1.00;0.90;;;21.90;63.50;;;;;;5052086;28;20547;-72
2023/08/28 09:36:22;;;;;;;1.10;1.00;;;21.90;63.50;;;;;;5051414;28;20261;-72
2023/08/28 09:38:48;;;;;;;0.98;0.80;;;21.90;63.70;;;;;;5052416;28;20258;-73
2023/08/28 09:41:13;;;;;;;2.83;1.00;;;21.90;63.60;;;;;;5052084;28;20200;-72
2023/08/28 09:43:39;;;;;;;1.75;1.13;;;22.00;63.60;;;;;;5051274;28;20171;-72
2023/08/28 09:46:05;;;;;;;1.20;1.10;;;21.90;63.60;;;;;;5050783;28;20207;-72
2023/08/28 09:48:34;;;;;;;1.40;0.93;;;21.80;63.80;;;;;;5052074;28;20179;-71
2023/08/28 09:51:06;;;;;;;1.88;1.20;;;21.90;64.00;;;;;;5051535;28;20171;-72
2023/08/28 09:53:32;;;;;;;1.30;0.90;;;21.80;64.00;;;;;;5055784;28;20167;-71
2023/08/28 09:55:58;;;;;;;1.98;1.17;;;21.70;64.00;;;;;;5055782;28;20286;-72
2023/08/28 09:58:27;;;;;;;1.73;1.00;;;21.80;64.10;;;;;;5054928;28;20186;-71
2023/08/28 10:00:55;;;;;;;1.30;0.85;;;21.70;64.90;;;;;;5055588;28;20342;-73
2023/08/28 10:03:22;;;;;;;2.60;1.00;;;21.80;64.00;;;;;;5055132;28;20174;-72
2023/08/28 10:05:47;;;;;;;1.30;1.00;;;21.90;63.70;;;;;;5054967;28;20211;-74
2023/08/28 10:08:14;;;;;;;1.58;0.90;;;21.80;63.70;;;;;;5054198;28;20175;-73
2023/08/28 10:10:41;;;;;;;1.63;0.80;;;21.80;63.90;;;;;;5055484;28;20187;-72
2023/08/28 10:13:13;;;;;;;3.50;1.08;;;21.70;64.10;;;;;;5054451;28;20245;-69
2023/08/28 10:16:04;;;;;;;1.67;0.98;;;21.70;64.10;;;;;;5055489;28;20254;-70
2023/08/28 10:18:33;;;;;;;1.30;1.00;;;21.70;64.20;;;;;;5054203;28;20176;-70
2023/08/28 10:20:58;;;;;;;2.30;0.90;;;21.70;64.20;;;;;;5053697;28;20182;-70
2023/08/28 10:23:24;;;;;;;1.60;1.02;;;21.80;64.10;;;;;;5053877;28;20167;-71
2023/08/28 10:25:52;;;;;;;2.05;1.17;;;21.90;63.90;;;;;;5053275;28;20234;-70
2023/08/28 10:28:17;;;;;;;1.58;0.80;;;22.00;63.80;;;;;;5053783;28;20175;-69
2023/08/28 10:30:43;;;;;;;0.93;0.93;;;22.10;63.70;;;;;;5052646;28;20195;-70
2023/08/28 10:33:09;;;;;;;2.42;0.95;;;22.10;63.60;;;;;;5052447;28;20163;-71
2023/08/28 10:35:35;;;;;;;1.50;0.80;;;22.20;63.60;;;;;;5053042;28;20698;-71
2023/08/28 10:38:00;;;;;;;2.35;1.08;;;22.20;64.30;;;;;;5053311;28;20262;-70
2023/08/28 10:40:26;;;;;;;1.58;1.13;;;22.20;63.40;;;;;;5052509;28;20626;-70
2023/08/28 10:42:52;;;;;;;1.77;0.90;;;22.30;63.40;;;;;;5052856;28;20626;-70
2023/08/28 10:45:18;;;;;;;1.25;0.80;;;22.30;63.50;;;;;;5052633;28;20234;-71
2023/08/28 10:47:49;;;;;;;2.17;1.05;;;22.30;63.40;;;;;;5052508;28;20576;-71
2023/08/28 10:50:15;;;;;;;1.38;0.82;;;22.30;63.30;;;;;;5053871;28;20171;-71
2023/08/28 10:52:41;;;;;;;1.13;0.70;;;22.40;63.40;;;;;;5053128;28;20175;-71
2023/08/28 10:55:07;;;;;;;1.17;0.93;;;22.40;63.30;;;;;;5035575;28;20582;-70
2023/08/28 10:57:32;;;;;;;1.63;0.90;;;22.30;63.30;;;;;;5054550;28;20175;-69
2023/08/28 11:00:14;;;;;;;4.00;1.00;;;22.40;63.40;;;;;;5052797;28;20186;-70
2023/08/28 11:03:01;;;;;;;4.05;0.80;;;22.30;63.30;;;;;;5052828;28;20172;-69
2023/08/28 11:05:27;;;;;;;1.63;0.90;;;22.20;63.40;;;;;;5054184;28;20219;-69
2023/08/28 11:07:53;;;;;;;1.63;0.82;;;22.20;63.70;;;;;;5053721;28;20185;-72
2023/08/28 11:10:20;;;;;;;0.98;0.90;;;22.20;63.60;;;;;;5054206;28;20179;-70
2023/08/28 11:13:05;;;;;;;1.95;0.93;;;22.10;63.70;;;;;;5054276;28;20250;-68
2023/08/28 11:15:40;;;;;;;1.08;0.70;;;22.10;63.80;;;;;;5053487;28;20183;-68
2023/08/28 11:18:35;;;;;;;0.85;0.75;;;22.10;63.90;;;;;;5053862;28;20206;-68
2023/08/28 11:21:06;;;;;;;4.05;0.90;;;22.10;64.00;;;;;;5052255;28;20581;-68
2023/08/28 11:23:36;;;;;;;1.30;0.70;;;22.10;64.10;;;;;;5053709;28;20182;-68
2023/08/28 11:26:17;;;;;;;2.90;0.98;;;22.20;64.10;;;;;;5053875;28;20273;-68
2023/08/28 11:28:49;;;;;;;1.13;0.98;;;22.20;64.00;;;;;;5053995;28;20253;-69
2023/08/28 11:31:15;;;;;;;1.48;0.85;;;22.30;63.80;;;;;;5052860;28;20664;-69
2023/08/28 11:33:44;;;;;;;1.75;0.90;;;22.30;63.60;;;;;;5053922;28;20179;-69
2023/08/28 11:36:14;;;;;;;1.58;0.95;;;22.30;63.60;;;;;;5052728;28;20692;-69
2023/08/28 11:38:40;;;;;;;1.08;0.70;;;22.30;63.80;;;;;;5053821;28;20186;-70
2023/08/28 11:41:08;;;;;;;1.83;0.63;;;22.20;63.90;;;;;;5053321;28;20179;-68
2023/08/28 11:43:38;;;;;;;5.65;0.82;;;22.20;64.10;;;;;;5053188;28;20217;-69
2023/08/28 11:46:04;;;;;;;2.38;0.90;;;22.20;63.90;;;;;;5053184;28;20235;-70
2023/08/28 11:48:36;;;;;;;3.42;1.00;;;22.20;63.70;;;;;;5053623;28;20175;-68
2023/08/28 11:51:03;;;;;;;2.35;0.70;;;22.00;63.80;;;;;;5052764;28;20225;-69
2023/08/28 11:53:36;;;;;;;1.13;0.68;;;22.10;63.90;;;;;;5053193;28;20179;-69
2023/08/28 11:56:03;;;;;;;0.85;0.68;;;22.00;63.90;;;;;;5053423;28;20197;-69
2023/08/28 11:58:30;;;;;;;1.08;0.70;;;22.00;63.90;;;;;;5052773;28;20175;-68
2023/08/28 12:00:55;;;;;;;0.93;0.70;;;22.10;63.80;;;;;;5052383;28;20175;-69
2023/08/28 12:03:21;;;;;;;0.98;0.77;;;22.10;63.80;;;;;;5052853;28;20175;-70
2023/08/28 12:05:47;;;;;;;1.55;0.90;;;22.10;63.70;;;;;;5052621;28;20297;-73
2023/08/28 12:08:12;;;;;;;1.02;0.70;;;22.10;63.70;;;;;;5052870;28;20175;-70
2023/08/28 12:10:38;;;;;;;1.67;0.73;;;22.20;63.70;;;;;;5051906;28;20182;-68
2023/08/28 12:13:04;;;;;;;1.67;0.93;;;22.20;63.40;;;;;;5052443;28;20184;-68
2023/08/28 12:15:33;;;;;;;1.15;0.70;;;22.20;63.60;;;;;;5052971;28;20717;-67
2023/08/28 12:18:06;;;;;;;0.77;0.77;;;22.10;63.60;;;;;;5055369;28;20171;-67
2023/08/28 12:20:35;;;;;;;2.65;0.90;;;22.10;63.60;;;;;;5067917;28;20240;-67
2023/08/28 12:23:01;;;;;;;3.33;0.98;;;22.20;63.60;;;;;;5053262;28;20179;-67
2023/08/28 12:25:34;;;;;;;0.75;0.75;;;22.20;63.50;;;;;;5055602;28;20209;-67
2023/08/28 12:28:05;;;;;;;0.80;0.80;;;22.20;63.50;;;;;;5072870;28;20220;-67
2023/08/28 12:30:30;;;;;;;0.77;0.77;;;22.20;63.60;;;;;;5073177;28;20190;-67
2023/08/28 12:32:56;;;;;;;1.33;0.73;;;22.20;63.60;;;;;;5071060;28;20167;-68
2023/08/28 12:35:25;;;;;;;1.52;0.98;;;22.10;63.50;;;;;;5055791;28;20186;-68
2023/08/28 12:37:51;;;;;;;1.77;0.85;;;22.10;63.40;;;;;;5053062;28;20254;-69
2023/08/28 12:40:17;;;;;;;0.60;0.60;;;22.20;63.40;;;;;;5051685;28;20271;-67
2023/08/28 12:42:42;;;;;;;0.95;0.70;;;22.30;63.20;;;;;;5052621;28;20171;-68
2023/08/28 12:45:08;;;;;;;0.98;0.65;;;22.30;63.90;;;;;;5052108;28;20234;-69